createdAt,value
2022-08-11T09:37:55.438Z,45.59
2022-08-11T09:40:31.023Z,43.55
2022-08-11T09:43:17.347Z,44.38
2022-08-11T09:45:51.642Z,45.06
2022-08-11T09:48:20.256Z,45.90
2022-08-11T09:50:50.959Z,43.39
2022-08-11T09:53:37.724Z,42.92
2022-08-11T09:56:30.434Z,47.03
2022-08-11T09:58:59.373Z,45.05
2022-08-11T10:01:31.366Z,45.51
2022-08-11T10:04:02.824Z,44.92
2022-08-11T10:06:53.991Z,43.74
2022-08-11T10:09:25.471Z,45.55
2022-08-11T10:11:58.121Z,44.97
2022-08-11T10:14:45.115Z,45.23
2022-08-11T10:17:14.988Z,45.04
2022-08-11T10:19:43.892Z,45.44
2022-08-11T10:22:30.168Z,45.79
2022-08-11T10:25:20.292Z,45.02
2022-08-11T10:28:32.776Z,44.63
2022-08-11T10:30:57.901Z,45.16
2022-08-11T10:33:58.966Z,44.76
2022-08-11T10:36:28.077Z,42.28
2022-08-11T10:38:57.197Z,42.71
2022-08-11T10:42:06.836Z,43.20
2022-08-11T10:44:34.991Z,41.12
2022-08-11T10:47:20.693Z,43.76
2022-08-11T10:50:09.537Z,39.82
2022-08-11T10:52:55.953Z,40.85
2022-08-11T10:55:42.176Z,39.43
2022-08-11T10:58:30.157Z,37.34
2022-08-11T11:00:59.021Z,40.91
2022-08-11T11:03:28.255Z,41.48
2022-08-11T11:06:13.990Z,43.52
2022-08-11T11:08:58.768Z,42.88
2022-08-11T11:11:46.297Z,42.98
2022-08-11T11:14:35.896Z,40.65
2022-08-11T11:17:32.354Z,40.60
2022-08-11T11:20:01.441Z,40.09
2022-08-11T11:22:39.875Z,42.17
2022-08-11T11:25:17.736Z,40.63
2022-08-11T11:27:55.595Z,37.83
2022-08-11T11:30:29.376Z,37.09
2022-08-11T11:33:04.439Z,38.37
2022-08-11T11:35:39.931Z,40.28
2022-08-11T11:38:13.736Z,39.38
2022-08-11T11:40:42.878Z,39.32
2022-08-11T11:43:11.478Z,41.80
2022-08-11T11:45:42.441Z,37.66
2022-08-11T11:48:10.588Z,40.04
2022-08-11T11:50:39.184Z,39.42
2022-08-11T11:53:09.211Z,39.39
2022-08-11T11:55:37.721Z,41.64
2022-08-11T11:58:23.724Z,39.41
2022-08-11T12:01:11.404Z,40.33
2022-08-11T12:03:41.243Z,38.03
2022-08-11T12:06:12.191Z,40.21
2022-08-11T12:08:40.253Z,40.41
2022-08-11T12:11:29.201Z,38.59
2022-08-11T12:13:58.902Z,37.61
2022-08-11T12:16:33.349Z,39.27
2022-08-11T12:19:05.217Z,40.12
2022-08-11T12:21:33.858Z,38.31
2022-08-11T12:24:20.163Z,42.74
2022-08-11T12:27:16.391Z,38.47
2022-08-11T12:29:51.387Z,40.02
2022-08-11T12:32:30.429Z,38.10
2022-08-11T12:34:58.591Z,38.13
2022-08-11T12:37:31.616Z,38.07
2022-08-11T12:40:43.008Z,39.37
2022-08-11T12:43:37.964Z,41.01
2022-08-11T12:46:09.323Z,40.64
2022-08-11T12:49:02.877Z,40.21
2022-08-11T12:52:10.974Z,38.42
2022-08-11T12:54:49.710Z,37.15
2022-08-11T12:57:38.204Z,37.43
2022-08-11T13:00:25.895Z,37.01
2022-08-11T13:03:12.756Z,37.77
2022-08-11T13:05:45.140Z,38.65
2022-08-11T13:08:15.248Z,39.74
2022-08-11T13:11:01.800Z,40.54
2022-08-11T13:13:55.600Z,40.99
2022-08-11T13:16:20.747Z,42.80
2022-08-11T13:18:49.001Z,37.91
2022-08-11T13:21:20.317Z,38.47
2022-08-11T13:24:01.692Z,38.87
2022-08-11T13:26:37.496Z,40.70
2022-08-11T13:29:17.761Z,40.88
2022-08-11T13:31:46.479Z,40.53
2022-08-11T13:34:14.732Z,40.36
2022-08-11T13:36:44.562Z,39.53
2022-08-11T13:39:13.224Z,41.12
2022-08-11T13:41:44.155Z,39.08
2022-08-11T13:44:15.815Z,38.96
2022-08-11T13:46:46.736Z,39.07
2022-08-11T13:49:17.572Z,38.59
2022-08-11T13:51:47.034Z,40.55
2022-08-11T13:54:18.895Z,41.08
2022-08-11T13:56:49.276Z,40.63
2022-08-11T13:59:20.257Z,41.44
2022-08-11T14:02:19.727Z,41.36
2022-08-11T14:04:44.730Z,39.40
2022-08-11T14:07:15.729Z,40.21
2022-08-11T14:09:44.983Z,39.67
2022-08-11T14:12:37.166Z,38.13
2022-08-11T14:15:08.975Z,38.62
2022-08-11T14:17:48.402Z,37.67
2022-08-11T14:20:38.524Z,37.37
2022-08-11T14:23:10.946Z,37.49
2022-08-11T14:26:02.449Z,38.71
2022-08-11T14:28:37.860Z,38.71
2022-08-11T14:31:10.353Z,39.21
2022-08-11T14:33:59.915Z,39.39
2022-08-11T14:36:28.029Z,40.41
2022-08-11T14:38:58.060Z,39.70
2022-08-11T14:42:11.941Z,39.55
2022-08-11T14:44:50.765Z,37.92
2022-08-11T14:47:24.241Z,38.06
2022-08-11T14:50:09.431Z,38.64
2022-08-11T14:52:41.213Z,38.38
2022-08-11T14:55:29.490Z,39.58
2022-08-11T14:57:57.990Z,39.03
2022-08-11T15:00:26.599Z,39.29
2022-08-11T15:03:12.923Z,39.76
2022-08-11T15:05:57.177Z,39.38
2022-08-11T15:08:48.694Z,38.98
2022-08-11T15:11:38.958Z,37.42
2022-08-11T15:14:08.838Z,38.78
2022-08-11T15:16:55.263Z,39.39
2022-08-11T15:19:23.406Z,39.79
2022-08-11T15:22:09.225Z,38.78
2022-08-11T15:24:37.655Z,37.88
2022-08-11T15:27:29.565Z,41.83
2022-08-11T15:30:29.892Z,41.38
2022-08-11T15:33:21.913Z,40.55
2022-08-11T15:36:07.923Z,40.46
2022-08-11T15:38:37.103Z,41.66
2022-08-11T15:41:24.009Z,41.90
2022-08-11T15:44:13.505Z,40.52
2022-08-11T15:46:43.739Z,41.59
2022-08-11T15:49:13.757Z,40.43
2022-08-11T15:51:52.285Z,41.10
2022-08-11T15:54:23.406Z,41.86
2022-08-11T15:56:55.135Z,40.07
2022-08-11T15:59:43.795Z,41.58
2022-08-11T16:02:32.782Z,40.95
2022-08-11T16:05:02.277Z,42.81
2022-08-11T16:07:34.414Z,43.09
2022-08-11T16:10:14.009Z,44.20
2022-08-11T16:13:21.410Z,43.06
2022-08-11T16:16:11.413Z,43.25
2022-08-11T16:18:44.449Z,44.05
2022-08-11T16:21:26.211Z,44.40
2022-08-11T16:24:04.897Z,45.22
2022-08-11T16:27:08.057Z,45.10
2022-08-11T16:29:23.101Z,46.64
2022-08-11T16:32:08.289Z,43.00
2022-08-11T16:34:54.597Z,45.43
2022-08-11T16:37:41.921Z,47.00
2022-08-11T16:40:11.825Z,46.18
2022-08-11T16:43:02.408Z,45.34
2022-08-11T16:45:58.186Z,45.55
2022-08-11T16:48:35.112Z,46.45
2022-08-11T16:51:05.497Z,48.99
2022-08-11T16:54:00.028Z,48.08
2022-08-11T16:56:24.206Z,47.41
2022-08-11T16:59:12.882Z,49.92
2022-08-11T17:01:41.206Z,47.17
2022-08-11T17:04:34.073Z,47.11
2022-08-11T17:07:40.300Z,48.10
2022-08-11T17:10:53.230Z,48.43
2022-08-11T17:13:27.482Z,49.25
2022-08-11T17:16:12.221Z,49.66
2022-08-11T17:18:45.613Z,52.77
2022-08-11T17:21:17.612Z,52.44
2022-08-11T17:23:49.927Z,51.17
2022-08-11T17:26:20.274Z,51.95
2022-08-11T17:28:51.989Z,52.05
2022-08-11T17:31:39.826Z,53.65
2022-08-11T17:34:26.163Z,52.78
2022-08-11T17:36:56.580Z,54.62
2022-08-11T17:39:29.289Z,53.52
2022-08-11T17:42:15.402Z,51.63
2022-08-11T17:45:01.540Z,50.67
2022-08-11T17:47:48.364Z,51.68
2022-08-11T17:50:18.253Z,51.93
2022-08-11T17:53:06.546Z,51.88
2022-08-11T17:55:53.588Z,53.05
2022-08-11T17:58:39.582Z,51.84
2022-08-11T18:01:09.100Z,54.11
2022-08-11T18:03:40.006Z,51.61
2022-08-11T18:06:12.726Z,54.88
2022-08-11T18:09:03.519Z,54.86
2022-08-11T18:12:07.044Z,55.09
2022-08-11T18:14:56.031Z,58.57
2022-08-11T18:17:41.522Z,58.43
2022-08-11T18:20:27.955Z,57.43
2022-08-11T18:23:14.702Z,59.69
2022-08-11T18:26:07.384Z,62.11
2022-08-11T18:28:58.494Z,62.81
2022-08-11T18:31:44.298Z,61.42
2022-08-11T18:34:32.929Z,62.17
2022-08-11T18:37:23.878Z,63.54
2022-08-11T18:40:17.063Z,64.42
2022-08-11T18:43:06.014Z,66.05
2022-08-11T18:45:57.490Z,67.40
2022-08-11T18:48:54.691Z,70.63
2022-08-11T18:51:40.477Z,69.80
2022-08-11T18:54:28.317Z,68.38
2022-08-11T18:57:15.741Z,67.87
2022-08-11T19:00:03.385Z,69.71
2022-08-11T19:02:50.195Z,69.20
2022-08-11T19:06:31.816Z,70.65
2022-08-11T19:08:47.273Z,73.18
2022-08-11T19:11:33.055Z,73.58
2022-08-11T19:14:19.736Z,75.99
2022-08-11T19:17:08.044Z,82.33
2022-08-11T19:19:55.267Z,85.71
2022-08-11T19:22:41.383Z,88.29
2022-08-11T19:25:27.645Z,91.67
2022-08-11T19:28:15.968Z,94.03
2022-08-11T19:31:01.542Z,98.35
2022-08-11T19:34:00.161Z,100.00
2022-08-11T19:36:55.381Z,100.00
2022-08-11T19:39:41.242Z,100.00
2022-08-11T19:42:26.993Z,100.00
2022-08-11T19:45:13.228Z,100.00
2022-08-11T19:48:20.747Z,100.00
2022-08-11T19:51:06.058Z,100.00
2022-08-11T19:53:52.007Z,100.00
2022-08-11T19:56:37.746Z,100.00
2022-08-11T19:59:23.647Z,100.00
2022-08-11T20:02:13.514Z,100.00
2022-08-11T20:05:00.409Z,100.00
2022-08-11T20:07:47.742Z,100.00
2022-08-11T20:10:35.997Z,100.00
2022-08-11T20:13:22.227Z,100.00
2022-08-11T20:16:07.955Z,100.00
2022-08-11T20:18:54.050Z,100.00
2022-08-11T20:21:40.492Z,100.00
2022-08-11T20:24:27.777Z,100.00
2022-08-11T20:27:18.887Z,100.00
2022-08-11T20:30:10.457Z,100.00
2022-08-11T20:32:56.221Z,100.00
2022-08-11T20:35:42.624Z,100.00
2022-08-11T20:38:28.393Z,100.00
2022-08-11T20:41:16.204Z,100.00
2022-08-11T20:44:05.765Z,100.00
2022-08-11T20:46:55.219Z,100.00
2022-08-11T20:49:50.524Z,100.00
2022-08-11T20:52:43.217Z,100.00
2022-08-11T20:55:51.749Z,100.00
2022-08-11T21:01:46.724Z,100.00
2022-08-11T21:04:32.760Z,100.00
2022-08-11T21:07:24.755Z,100.00
2022-08-11T21:10:23.735Z,100.00
2022-08-11T21:13:25.035Z,100.00
2022-08-11T21:16:25.679Z,100.00
2022-08-11T21:19:16.046Z,100.00
2022-08-11T21:22:03.474Z,100.00
2022-08-11T21:24:50.220Z,100.00
2022-08-11T21:27:36.941Z,100.00
2022-08-11T21:30:23.293Z,100.00
2022-08-11T21:33:10.437Z,100.00
2022-08-11T21:35:56.213Z,100.00
2022-08-11T21:38:41.975Z,100.00
2022-08-11T21:41:29.255Z,100.00
2022-08-11T21:44:16.115Z,100.00
2022-08-11T21:47:02.502Z,100.00
2022-08-11T21:49:50.277Z,100.00
2022-08-11T21:52:36.246Z,100.00
2022-08-11T21:55:21.966Z,100.00
2022-08-11T21:58:07.628Z,100.00
2022-08-11T22:00:53.497Z,100.00
2022-08-11T22:03:50.072Z,100.00
2022-08-11T22:06:37.762Z,100.00
2022-08-11T22:09:22.919Z,100.00
2022-08-11T22:12:34.431Z,100.00
2022-08-11T22:15:14.096Z,100.00
2022-08-11T22:17:59.280Z,100.00
2022-08-11T22:20:46.057Z,100.00
2022-08-11T22:23:35.271Z,100.00
2022-08-11T22:26:22.786Z,100.00
2022-08-11T22:29:07.912Z,100.00
2022-08-11T22:31:54.792Z,100.00
2022-08-11T22:34:49.151Z,100.00
2022-08-11T22:37:38.963Z,100.00
2022-08-11T22:40:27.648Z,100.00
2022-08-11T22:43:12.999Z,100.00
2022-08-11T22:45:58.786Z,100.00
2022-08-11T22:48:45.116Z,100.00
2022-08-11T22:51:32.307Z,100.00
2022-08-11T22:54:19.143Z,100.00
2022-08-11T22:57:07.087Z,100.00
2022-08-11T22:59:54.757Z,100.00
2022-08-11T23:02:40.611Z,100.00
2022-08-11T23:05:27.958Z,100.00
2022-08-11T23:08:14.734Z,100.00
2022-08-11T23:11:00.491Z,100.00
2022-08-11T23:13:47.756Z,100.00
2022-08-11T23:16:33.924Z,100.00
2022-08-11T23:20:08.989Z,100.00
2022-08-11T23:22:43.841Z,100.00
2022-08-11T23:25:30.844Z,100.00
2022-08-11T23:28:17.565Z,100.00
2022-08-11T23:31:04.923Z,100.00
2022-08-11T23:33:53.200Z,100.00
2022-08-11T23:36:47.771Z,100.00
2022-08-11T23:39:33.904Z,100.00
2022-08-11T23:42:19.656Z,100.00
2022-08-11T23:45:09.424Z,100.00
2022-08-11T23:47:57.151Z,100.00
2022-08-11T23:50:43.366Z,100.00
2022-08-11T23:53:29.278Z,100.00
2022-08-11T23:56:15.137Z,100.00
2022-08-11T23:59:01.000Z,100.00
